createdAt,value
2023-05-09T00:01:36.337Z,8.43
2023-05-09T00:06:57.461Z,8.35
2023-05-09T00:12:18.368Z,8.26
2023-05-09T00:17:40.285Z,8.26
2023-05-09T00:23:01.283Z,8.21
2023-05-09T00:28:22.439Z,8.15
2023-05-09T00:33:43.657Z,8.26
2023-05-09T00:39:05.637Z,8.13
2023-05-09T00:44:26.681Z,8.04
2023-05-09T00:49:47.362Z,7.94
2023-05-09T00:55:08.834Z,7.94
2023-05-09T01:00:30.329Z,7.93
2023-05-09T01:06:15.262Z,7.96
2023-05-09T01:11:53.020Z,7.98
2023-05-09T01:17:30.830Z,8.02
2023-05-09T01:23:00.876Z,8.04
2023-05-09T01:28:36.740Z,8.01
2023-05-09T01:34:00.561Z,8.03
2023-05-09T01:39:24.989Z,8.04
2023-05-09T01:44:47.259Z,8.23
2023-05-09T01:50:11.040Z,8.38
2023-05-09T01:55:37.347Z,8.48
2023-05-09T02:00:59.494Z,8.42
2023-05-09T02:06:23.427Z,8.30
2023-05-09T02:11:44.997Z,8.21
2023-05-09T02:17:07.134Z,8.00
2023-05-09T02:22:28.406Z,7.88
2023-05-09T02:27:51.203Z,7.86
2023-05-09T02:33:13.942Z,7.95
2023-05-09T02:38:36.410Z,7.91
2023-05-09T02:43:57.564Z,7.82
2023-05-09T02:49:31.577Z,7.84
2023-05-09T02:54:53.779Z,7.81
2023-05-09T03:00:15.813Z,7.83
2023-05-09T03:05:37.100Z,7.86
2023-05-09T03:10:58.324Z,7.88
2023-05-09T03:16:20.323Z,7.94
2023-05-09T03:21:42.321Z,7.69
2023-05-09T03:27:03.218Z,7.60
2023-05-09T03:32:24.466Z,7.64
2023-05-09T03:37:45.432Z,7.74
2023-05-09T03:43:06.314Z,7.78
2023-05-09T03:48:27.585Z,7.62
2023-05-09T03:53:48.550Z,7.36
2023-05-09T03:59:10.536Z,7.43
2023-05-09T04:04:32.092Z,7.75
2023-05-09T04:09:58.617Z,8.28
2023-05-09T04:15:19.828Z,8.97
2023-05-09T04:20:40.890Z,9.59
2023-05-09T04:26:02.500Z,10.25
2023-05-09T04:31:24.376Z,10.64
2023-05-09T04:36:46.727Z,10.93
2023-05-09T04:42:08.067Z,11.11
2023-05-09T04:47:28.993Z,11.18
2023-05-09T04:52:50.040Z,11.41
2023-05-09T04:58:12.853Z,11.56
2023-05-09T05:03:33.880Z,11.58
2023-05-09T05:08:54.907Z,11.82
2023-05-09T05:14:16.545Z,11.79
2023-05-09T05:19:37.742Z,11.54
2023-05-09T05:25:01.076Z,11.56
2023-05-09T05:30:22.166Z,11.15
2023-05-09T05:35:43.407Z,11.20
2023-05-09T05:41:04.825Z,10.94
2023-05-09T05:46:27.305Z,10.75
2023-05-09T05:51:49.196Z,10.95
2023-05-09T05:57:10.603Z,11.07
2023-05-09T06:02:31.860Z,11.41
2023-05-09T06:07:53.172Z,12.01
2023-05-09T06:13:13.923Z,12.13
2023-05-09T06:18:40.249Z,12.64
2023-05-09T06:24:08.501Z,12.77
2023-05-09T06:29:31.233Z,12.96
2023-05-09T06:34:52.800Z,12.78
2023-05-09T06:40:17.229Z,12.91
2023-05-09T06:45:38.305Z,13.32
2023-05-09T06:50:59.143Z,13.04
2023-05-09T06:56:21.560Z,12.88
2023-05-09T07:01:42.832Z,13.18
2023-05-09T07:07:03.794Z,13.86
2023-05-09T07:12:24.936Z,13.91
2023-05-09T07:17:45.791Z,13.99
2023-05-09T07:23:07.002Z,13.90
2023-05-09T07:28:28.245Z,14.04
2023-05-09T07:33:49.404Z,14.23
2023-05-09T07:39:10.707Z,14.41
2023-05-09T07:44:31.654Z,14.36
2023-05-09T07:49:52.810Z,14.29
2023-05-09T07:55:14.082Z,14.10
2023-05-09T08:00:38.391Z,13.91
2023-05-09T08:05:59.382Z,13.69
2023-05-09T08:11:20.183Z,13.83
2023-05-09T08:16:43.549Z,14.09
2023-05-09T08:22:04.871Z,14.03
2023-05-09T08:27:26.326Z,13.95
2023-05-09T08:32:47.571Z,14.14
2023-05-09T08:38:10.370Z,14.03
2023-05-09T08:43:34.174Z,13.99
2023-05-09T08:48:56.923Z,14.20
2023-05-09T08:54:20.751Z,14.20
2023-05-09T08:59:44.004Z,14.20
2023-05-09T09:05:16.393Z,14.08
2023-05-09T09:10:49.715Z,14.11
2023-05-09T09:16:14.709Z,14.05
2023-05-09T09:21:36.699Z,14.01
2023-05-09T09:26:57.728Z,14.28
2023-05-09T09:32:19.756Z,14.35
2023-05-09T09:37:41.762Z,14.59
2023-05-09T09:43:07.053Z,14.39
2023-05-09T09:48:32.313Z,14.38
2023-05-09T09:53:53.465Z,14.37
2023-05-09T09:59:16.422Z,14.43
2023-05-09T10:04:39.358Z,14.67
2023-05-09T10:10:01.073Z,14.93
2023-05-09T10:15:23.073Z,14.89
2023-05-09T10:20:44.564Z,14.96
2023-05-09T10:26:15.907Z,15.02
2023-05-09T10:31:40.862Z,15.09
2023-05-09T10:37:02.246Z,15.19
2023-05-09T10:42:25.350Z,15.14
2023-05-09T10:47:48.452Z,15.28
2023-05-09T10:53:21.753Z,15.36
2023-05-09T10:58:42.708Z,15.18
2023-05-09T11:04:16.957Z,15.28
2023-05-09T11:09:40.012Z,15.27
2023-05-09T11:15:06.537Z,15.41
2023-05-09T11:20:29.076Z,15.43
2023-05-09T11:25:50.392Z,15.55
2023-05-09T11:31:16.988Z,15.70
2023-05-09T11:36:42.899Z,15.75
2023-05-09T11:42:04.893Z,15.80
2023-05-09T11:47:28.892Z,15.96
2023-05-09T11:52:50.939Z,16.07
2023-05-09T11:58:12.228Z,16.10
2023-05-09T12:03:35.802Z,16.01
2023-05-09T12:08:57.933Z,16.05
2023-05-09T12:14:34.889Z,16.05
2023-05-09T12:20:07.586Z,16.18
2023-05-09T12:25:28.605Z,16.36
2023-05-09T12:30:50.838Z,16.42
2023-05-09T12:36:13.812Z,16.46
2023-05-09T12:41:41.404Z,16.49
2023-05-09T12:47:05.238Z,16.56
2023-05-09T12:52:33.319Z,16.56
2023-05-09T12:58:02.388Z,16.58
2023-05-09T13:03:30.703Z,16.63
2023-05-09T13:09:02.484Z,16.74
2023-05-09T13:14:23.611Z,16.65
2023-05-09T13:19:44.446Z,16.65
2023-05-09T13:25:06.095Z,16.64
2023-05-09T13:30:27.349Z,16.66
2023-05-09T13:35:49.220Z,16.80
2023-05-09T13:41:10.237Z,16.87
2023-05-09T13:46:31.033Z,16.88
2023-05-09T13:51:51.932Z,16.99
2023-05-09T13:57:12.771Z,16.98
2023-05-09T14:02:33.880Z,16.94
2023-05-09T14:07:55.694Z,16.95
2023-05-09T14:13:16.717Z,17.01
2023-05-09T14:18:37.675Z,16.91
2023-05-09T14:23:58.446Z,16.94
2023-05-09T14:29:19.348Z,17.06
2023-05-09T14:34:40.047Z,16.91
2023-05-09T14:40:05.798Z,16.91
2023-05-09T14:45:27.084Z,16.89
2023-05-09T14:50:49.743Z,16.88
2023-05-09T14:56:13.957Z,16.89
2023-05-09T15:01:35.196Z,16.90
2023-05-09T15:06:56.969Z,16.87
2023-05-09T15:12:18.253Z,16.90
2023-05-09T15:17:39.310Z,16.80
2023-05-09T15:23:00.226Z,16.69
2023-05-09T15:28:21.452Z,16.67
2023-05-09T15:33:42.895Z,16.61
2023-05-09T15:39:05.158Z,16.65
2023-05-09T15:44:26.906Z,16.59
2023-05-09T15:49:47.837Z,16.52
2023-05-09T15:55:09.744Z,16.45
2023-05-09T16:00:30.789Z,16.37
2023-05-09T16:05:53.094Z,16.34
2023-05-09T16:11:14.363Z,16.22
2023-05-09T16:16:35.886Z,16.17
2023-05-09T16:21:57.447Z,16.16
2023-05-09T16:27:18.886Z,16.16
2023-05-09T16:32:39.986Z,16.10
2023-05-09T16:38:01.117Z,16.04
2023-05-09T16:43:22.015Z,15.97
2023-05-09T16:48:43.014Z,15.90
2023-05-09T16:54:03.899Z,15.84
2023-05-09T16:59:25.157Z,15.77
2023-05-09T17:04:46.340Z,15.68
2023-05-09T17:10:21.695Z,15.67
2023-05-09T17:15:42.953Z,15.62
2023-05-09T17:21:04.188Z,15.49
2023-05-09T17:26:26.069Z,15.40
2023-05-09T17:31:46.981Z,15.31
2023-05-09T17:37:09.224Z,15.24
2023-05-09T17:42:30.296Z,15.17
2023-05-09T17:47:51.136Z,15.08
2023-05-09T17:53:13.274Z,14.98
2023-05-09T17:58:34.388Z,14.91
2023-05-09T18:03:55.325Z,14.77
2023-05-09T18:09:16.376Z,14.68
2023-05-09T18:14:39.113Z,14.58
2023-05-09T18:20:00.338Z,14.46
2023-05-09T18:25:24.423Z,14.32
2023-05-09T18:30:45.812Z,14.22
2023-05-09T18:36:10.081Z,14.15
2023-05-09T18:41:31.951Z,14.02
2023-05-09T18:46:56.975Z,13.92
2023-05-09T18:52:21.211Z,13.86
2023-05-09T18:57:42.108Z,13.87
2023-05-09T19:03:03.075Z,13.70
2023-05-09T19:08:24.021Z,13.54
2023-05-09T19:13:48.701Z,13.39
2023-05-09T19:19:09.931Z,13.28
2023-05-09T19:24:32.786Z,13.18
2023-05-09T19:29:54.313Z,13.12
2023-05-09T19:35:16.236Z,13.06
2023-05-09T19:40:37.078Z,12.94
2023-05-09T19:45:58.566Z,12.90
2023-05-09T19:51:19.631Z,12.85
2023-05-09T19:56:40.453Z,12.75
2023-05-09T20:02:01.537Z,12.70
2023-05-09T20:13:01.230Z,12.60
2023-05-09T20:18:22.704Z,12.51
2023-05-09T20:23:43.912Z,12.46
2023-05-09T20:29:05.068Z,12.37
2023-05-09T20:34:27.317Z,12.30
2023-05-09T20:39:48.391Z,12.24
2023-05-09T20:45:09.626Z,12.16
2023-05-09T20:50:30.401Z,12.09
2023-05-09T20:55:51.439Z,12.01
2023-05-09T21:01:12.579Z,11.97
2023-05-09T21:06:33.611Z,11.89
2023-05-09T21:11:54.757Z,11.82
2023-05-09T21:17:15.732Z,11.77
2023-05-09T21:22:36.784Z,11.75
2023-05-09T21:27:57.500Z,11.68
2023-05-09T21:33:18.493Z,11.61
2023-05-09T21:38:39.550Z,11.56
2023-05-09T21:44:00.312Z,11.51
2023-05-09T21:49:21.802Z,11.52
2023-05-09T21:54:42.824Z,11.48
2023-05-09T22:00:05.666Z,11.40
2023-05-09T22:05:33.720Z,11.34
2023-05-09T22:10:54.491Z,11.33
2023-05-09T22:16:15.371Z,11.28
2023-05-09T22:21:36.139Z,11.24
2023-05-09T22:26:56.875Z,11.19
2023-05-09T22:32:17.836Z,11.15
2023-05-09T22:37:38.958Z,11.10
2023-05-09T22:42:59.876Z,11.08
2023-05-09T22:48:23.377Z,11.02
2023-05-09T22:53:44.071Z,10.95
2023-05-09T22:59:05.035Z,10.92
2023-05-09T23:04:25.975Z,10.84
2023-05-09T23:09:46.649Z,10.83
2023-05-09T23:15:08.035Z,10.76
2023-05-09T23:20:28.775Z,10.72
2023-05-09T23:25:49.520Z,10.67
2023-05-09T23:31:10.650Z,10.63
2023-05-09T23:36:32.914Z,10.57
2023-05-09T23:41:54.024Z,10.50
2023-05-09T23:47:16.919Z,10.47
2023-05-09T23:52:37.832Z,10.41
2023-05-09T23:57:59.511Z,10.38
